createdAt,value
2019-03-26T00:00:39.027Z,3.90
2019-03-26T00:03:07.090Z,3.90
2019-03-26T00:05:35.414Z,3.80
2019-03-26T00:08:03.713Z,3.80
2019-03-26T00:10:31.695Z,3.80
2019-03-26T00:12:59.743Z,3.80
2019-03-26T00:15:27.767Z,3.80
2019-03-26T00:17:55.786Z,3.80
2019-03-26T00:20:23.769Z,3.80
2019-03-26T00:22:51.798Z,3.70
2019-03-26T00:25:19.846Z,3.70
2019-03-26T00:27:47.872Z,3.80
2019-03-26T00:30:16.058Z,3.80
2019-03-26T00:32:44.062Z,3.80
2019-03-26T00:35:12.063Z,3.90
2019-03-26T00:37:40.058Z,3.90
2019-03-26T00:40:08.094Z,3.90
2019-03-26T00:42:36.124Z,4.00
2019-03-26T00:45:04.291Z,3.90
2019-03-26T00:47:32.321Z,4.00
2019-03-26T00:50:00.322Z,4.00
2019-03-26T00:52:28.666Z,4.10
2019-03-26T00:54:56.652Z,4.10
2019-03-26T00:57:24.646Z,4.10
2019-03-26T00:59:52.688Z,4.10
2019-03-26T01:02:20.710Z,4.10
2019-03-26T01:04:48.732Z,4.20
2019-03-26T01:07:16.739Z,4.10
2019-03-26T01:09:44.722Z,4.10
2019-03-26T01:12:12.745Z,4.00
2019-03-26T01:14:40.756Z,3.90
2019-03-26T01:17:08.760Z,3.90
2019-03-26T01:19:36.774Z,3.80
2019-03-26T01:22:04.838Z,3.80
2019-03-26T01:24:32.917Z,3.80
2019-03-26T01:27:01.367Z,3.80
2019-03-26T01:29:29.355Z,3.70
2019-03-26T01:31:57.351Z,3.70
2019-03-26T01:34:25.366Z,3.80
2019-03-26T01:36:53.430Z,3.80
2019-03-26T01:39:21.435Z,3.80
2019-03-26T01:41:49.463Z,3.80
2019-03-26T01:44:17.522Z,3.90
2019-03-26T01:46:45.506Z,4.00
2019-03-26T01:49:13.501Z,4.00
2019-03-26T01:51:41.484Z,4.00
2019-03-26T01:54:09.508Z,4.00
2019-03-26T01:56:37.491Z,4.00
2019-03-26T01:59:05.496Z,4.10
2019-03-26T02:01:33.513Z,4.10
2019-03-26T02:04:01.520Z,4.10
2019-03-26T02:06:29.531Z,4.00
2019-03-26T02:08:57.584Z,4.20
2019-03-26T02:11:25.605Z,4.20
2019-03-26T02:13:53.588Z,4.30
2019-03-26T02:16:21.646Z,4.30
2019-03-26T02:18:49.667Z,4.30
2019-03-26T02:21:17.693Z,4.30
2019-03-26T02:23:45.761Z,4.30
2019-03-26T02:26:13.758Z,4.30
2019-03-26T02:28:42.039Z,4.30
2019-03-26T02:31:10.048Z,4.30
2019-03-26T02:33:38.547Z,4.30
2019-03-26T02:36:06.541Z,4.30
2019-03-26T02:38:34.521Z,4.30
2019-03-26T02:41:02.569Z,4.30
2019-03-26T02:43:30.564Z,4.30
2019-03-26T02:45:58.681Z,4.30
2019-03-26T02:48:26.667Z,4.40
2019-03-26T02:50:54.717Z,4.30
2019-03-26T02:53:22.703Z,4.40
2019-03-26T02:55:50.696Z,4.40
2019-03-26T02:58:18.923Z,4.40
2019-03-26T03:00:46.931Z,4.40
2019-03-26T03:03:14.907Z,4.30
2019-03-26T03:05:43.267Z,4.40
2019-03-26T03:08:11.297Z,4.30
2019-03-26T03:10:39.324Z,4.40
2019-03-26T03:13:07.400Z,4.40
2019-03-26T03:15:35.510Z,4.40
2019-03-26T03:18:04.067Z,4.30
2019-03-26T03:20:32.063Z,4.30
2019-03-26T03:23:00.073Z,4.30
2019-03-26T03:25:28.106Z,4.30
2019-03-26T03:27:56.638Z,4.30
2019-03-26T03:30:24.650Z,4.40
2019-03-26T03:32:52.663Z,4.40
2019-03-26T03:35:20.954Z,4.40
2019-03-26T03:37:48.942Z,4.50
2019-03-26T03:40:16.949Z,4.50
2019-03-26T03:42:44.963Z,4.50
2019-03-26T03:45:14.967Z,4.50
2019-03-26T03:47:43.277Z,4.40
2019-03-26T03:50:11.802Z,4.50
2019-03-26T03:52:41.374Z,4.30
2019-03-26T03:55:10.698Z,4.30
2019-03-26T03:57:40.720Z,4.30
2019-03-26T04:00:37.445Z,4.30
2019-03-26T04:03:06.256Z,4.30
2019-03-26T04:05:34.287Z,4.20
2019-03-26T04:08:02.303Z,4.30
2019-03-26T04:10:30.316Z,4.30
2019-03-26T04:12:59.035Z,4.30
2019-03-26T04:15:27.086Z,4.40
2019-03-26T04:17:55.138Z,4.50
2019-03-26T04:20:23.167Z,4.40
2019-03-26T04:22:51.256Z,4.40
2019-03-26T04:25:19.314Z,4.50
2019-03-26T04:27:47.307Z,4.40
2019-03-26T04:30:26.690Z,4.50
2019-03-26T04:32:54.682Z,4.50
2019-03-26T04:35:22.688Z,4.50
2019-03-26T04:37:50.728Z,4.40
2019-03-26T04:40:18.789Z,4.40
2019-03-26T04:42:46.813Z,4.50
2019-03-26T04:45:14.812Z,4.50
2019-03-26T04:47:42.788Z,4.50
2019-03-26T04:50:10.872Z,4.50
2019-03-26T04:52:38.891Z,4.50
2019-03-26T04:55:06.918Z,4.50
2019-03-26T04:57:34.928Z,4.40
2019-03-26T05:00:03.364Z,4.50
2019-03-26T05:02:31.378Z,4.40
2019-03-26T05:04:59.438Z,4.50
2019-03-26T05:07:27.465Z,4.50
2019-03-26T05:09:55.479Z,4.50
2019-03-26T05:12:23.515Z,4.50
2019-03-26T05:14:51.529Z,4.50
2019-03-26T05:17:19.537Z,4.50
2019-03-26T05:19:47.579Z,4.50
2019-03-26T05:22:24.100Z,4.50
2019-03-26T05:24:45.437Z,4.50
2019-03-26T05:27:13.786Z,4.50
2019-03-26T05:29:41.793Z,4.50
2019-03-26T05:32:09.814Z,4.50
2019-03-26T05:34:37.809Z,4.50
2019-03-26T05:37:05.830Z,4.60
2019-03-26T05:39:33.932Z,4.50
2019-03-26T05:42:01.957Z,4.60
2019-03-26T05:44:30.022Z,4.60
2019-03-26T05:46:57.996Z,4.50
2019-03-26T05:49:25.971Z,4.60
2019-03-26T05:51:53.958Z,4.60
2019-03-26T05:54:22.119Z,4.70
2019-03-26T05:56:50.074Z,4.70
2019-03-26T05:59:18.089Z,4.60
2019-03-26T06:01:46.097Z,4.60
2019-03-26T06:04:14.060Z,4.70
2019-03-26T06:06:42.045Z,4.70
2019-03-26T06:09:10.034Z,4.80
2019-03-26T06:11:37.995Z,4.90
2019-03-26T06:14:06.044Z,4.90
2019-03-26T06:16:38.612Z,5.00
2019-03-26T06:19:04.147Z,5.10
2019-03-26T06:21:32.151Z,5.10
2019-03-26T06:24:00.168Z,5.10
2019-03-26T06:26:28.221Z,5.30
2019-03-26T06:28:56.182Z,5.30
2019-03-26T06:31:24.148Z,5.40
2019-03-26T06:33:52.242Z,5.40
2019-03-26T06:36:20.241Z,5.40
2019-03-26T06:38:48.226Z,5.50
2019-03-26T06:41:16.217Z,5.50
2019-03-26T06:43:44.191Z,5.40
2019-03-26T06:46:12.290Z,5.40
2019-03-26T06:48:40.318Z,5.50
2019-03-26T06:51:08.349Z,5.70
2019-03-26T06:53:36.327Z,5.70
2019-03-26T06:56:04.362Z,5.70
2019-03-26T06:58:32.335Z,5.90
2019-03-26T07:01:01.361Z,6.00
2019-03-26T07:03:29.367Z,6.30
2019-03-26T07:05:57.346Z,6.20
2019-03-26T07:08:25.370Z,6.20
2019-03-26T07:10:53.343Z,6.10
2019-03-26T07:13:21.321Z,6.20
2019-03-26T07:15:49.387Z,6.20
2019-03-26T07:18:17.402Z,6.50
2019-03-26T07:20:45.413Z,6.60
2019-03-26T07:23:13.394Z,6.70
2019-03-26T07:25:41.406Z,6.60
2019-03-26T07:28:09.389Z,6.60
2019-03-26T07:30:39.466Z,6.50
2019-03-26T07:33:07.711Z,6.50
2019-03-26T07:35:36.008Z,6.60
2019-03-26T07:38:04.072Z,6.60
2019-03-26T07:40:32.055Z,6.50
2019-03-26T07:43:00.034Z,6.60
2019-03-26T07:45:28.011Z,6.40
2019-03-26T07:47:55.994Z,6.60
2019-03-26T07:50:23.998Z,6.70
2019-03-26T07:52:51.977Z,7.00
2019-03-26T07:55:19.961Z,7.10
2019-03-26T07:57:47.918Z,7.40
2019-03-26T08:00:19.557Z,7.30
2019-03-26T08:02:47.512Z,7.20
2019-03-26T08:05:15.542Z,7.20
2019-03-26T08:07:43.521Z,7.30
2019-03-26T08:10:11.695Z,7.20
2019-03-26T08:12:39.674Z,7.20
2019-03-26T08:15:07.847Z,7.20
2019-03-26T08:17:35.880Z,7.10
2019-03-26T08:20:04.358Z,7.00
2019-03-26T08:22:32.313Z,7.10
2019-03-26T08:25:00.644Z,7.30
2019-03-26T08:27:28.610Z,7.50
2019-03-26T08:29:56.549Z,7.60
2019-03-26T08:32:24.536Z,7.30
2019-03-26T08:34:52.560Z,7.30
2019-03-26T08:37:20.552Z,7.30
2019-03-26T08:39:48.545Z,7.30
2019-03-26T08:42:16.534Z,7.50
2019-03-26T08:44:44.525Z,7.60
2019-03-26T08:47:12.514Z,7.50
2019-03-26T08:49:40.500Z,7.60
2019-03-26T08:52:08.469Z,7.70
2019-03-26T08:54:36.466Z,7.70
2019-03-26T08:57:04.439Z,7.40
2019-03-26T08:59:32.479Z,7.70
2019-03-26T09:02:00.463Z,7.70
2019-03-26T09:04:28.505Z,8.00
2019-03-26T09:06:56.448Z,8.20
2019-03-26T09:09:24.465Z,8.10
2019-03-26T09:11:52.477Z,8.30
2019-03-26T09:14:20.498Z,8.50
2019-03-26T09:16:48.491Z,8.50
2019-03-26T09:19:16.456Z,8.20
2019-03-26T09:21:44.499Z,8.20
2019-03-26T09:24:12.485Z,8.20
2019-03-26T09:26:40.491Z,8.40
2019-03-26T09:29:08.490Z,8.30
2019-03-26T09:31:36.470Z,8.30
2019-03-26T09:34:04.826Z,8.60
2019-03-26T09:36:32.851Z,8.70
2019-03-26T09:39:00.859Z,8.80
2019-03-26T09:41:28.829Z,9.00
2019-03-26T09:43:56.784Z,9.10
2019-03-26T09:46:24.820Z,8.80
2019-03-26T09:48:52.807Z,8.80
2019-03-26T09:51:20.776Z,8.50
2019-03-26T09:53:48.821Z,8.20
2019-03-26T09:56:27.946Z,8.60
2019-03-26T09:58:46.715Z,8.60
2019-03-26T10:01:14.738Z,8.40
2019-03-26T10:03:42.746Z,8.40
2019-03-26T10:06:22.853Z,8.60
2019-03-26T10:08:51.869Z,8.80
2019-03-26T10:11:10.368Z,8.60
2019-03-26T10:13:38.416Z,8.40
2019-03-26T10:16:06.648Z,8.20
2019-03-26T10:18:34.662Z,8.30
2019-03-26T10:21:02.657Z,8.10
2019-03-26T10:23:30.674Z,8.10
2019-03-26T10:25:58.646Z,7.90
2019-03-26T10:28:26.647Z,7.80
2019-03-26T10:30:54.623Z,7.80
2019-03-26T10:33:22.612Z,7.80
2019-03-26T10:35:50.598Z,7.90
2019-03-26T10:38:18.602Z,8.10
2019-03-26T10:40:46.640Z,8.20
2019-03-26T10:43:14.623Z,8.20
2019-03-26T10:45:42.634Z,8.00
2019-03-26T10:48:10.613Z,8.00
2019-03-26T10:50:38.953Z,7.80
2019-03-26T10:53:06.994Z,8.00
2019-03-26T10:55:34.947Z,8.30
2019-03-26T10:58:02.986Z,8.30
2019-03-26T11:00:31.008Z,8.20
2019-03-26T11:02:58.968Z,8.40
2019-03-26T11:05:26.978Z,8.30
2019-03-26T11:07:54.961Z,8.30
2019-03-26T11:10:22.993Z,8.10
2019-03-26T11:12:51.000Z,8.10
2019-03-26T11:15:19.006Z,7.80
2019-03-26T11:17:46.981Z,7.60
2019-03-26T11:20:15.272Z,7.50
2019-03-26T11:22:43.267Z,7.50
2019-03-26T11:25:12.440Z,7.40
2019-03-26T11:27:41.117Z,7.30
2019-03-26T11:30:09.692Z,7.20
2019-03-26T11:32:37.679Z,7.30
2019-03-26T11:35:06.447Z,7.40
2019-03-26T11:37:34.492Z,7.50
2019-03-26T11:40:02.507Z,7.60
2019-03-26T11:42:30.456Z,7.70
2019-03-26T11:44:59.528Z,7.70
2019-03-26T11:47:27.559Z,7.70
2019-03-26T11:49:55.532Z,7.50
2019-03-26T11:52:23.617Z,7.50
2019-03-26T11:54:51.583Z,7.60
2019-03-26T11:57:19.546Z,7.60
2019-03-26T11:59:47.526Z,7.60
2019-03-26T12:02:15.486Z,7.80
2019-03-26T12:04:43.460Z,7.70
2019-03-26T12:07:11.441Z,8.20
2019-03-26T12:09:46.176Z,8.40
2019-03-26T12:12:09.225Z,8.60
2019-03-26T12:14:37.196Z,8.90
2019-03-26T12:17:05.190Z,9.50
2019-03-26T12:19:33.299Z,9.80
2019-03-26T12:22:01.306Z,9.70
2019-03-26T12:24:29.275Z,10.00
2019-03-26T12:26:57.280Z,10.30
2019-03-26T12:29:25.291Z,10.20
2019-03-26T12:31:53.381Z,10.00
2019-03-26T12:34:21.406Z,9.70
2019-03-26T12:36:49.382Z,9.90
2019-03-26T12:39:17.343Z,9.80
2019-03-26T12:41:45.354Z,9.90
2019-03-26T12:44:13.310Z,9.50
2019-03-26T12:46:41.324Z,9.50
2019-03-26T12:49:09.304Z,9.30
2019-03-26T12:51:39.311Z,9.30
2019-03-26T12:54:07.324Z,9.20
2019-03-26T12:56:35.287Z,9.20
2019-03-26T12:59:03.258Z,8.90
2019-03-26T13:01:31.551Z,9.00
2019-03-26T13:04:12.036Z,9.00
2019-03-26T13:06:29.434Z,9.00
2019-03-26T13:08:57.402Z,8.90
2019-03-26T13:11:25.398Z,9.00
2019-03-26T13:13:53.400Z,9.00
2019-03-26T13:16:21.420Z,8.90
2019-03-26T13:18:49.395Z,9.00
2019-03-26T13:21:17.587Z,9.10
2019-03-26T13:23:45.560Z,9.30
2019-03-26T13:26:13.509Z,9.40
2019-03-26T13:28:41.515Z,9.00
2019-03-26T13:31:09.463Z,8.80
2019-03-26T13:33:37.489Z,9.00
2019-03-26T13:36:05.786Z,9.50
2019-03-26T13:38:33.787Z,9.70
2019-03-26T13:41:01.808Z,9.60
2019-03-26T13:43:29.775Z,9.30
2019-03-26T13:45:57.786Z,9.10
2019-03-26T13:48:25.741Z,9.20
2019-03-26T13:50:53.698Z,9.60
2019-03-26T13:53:21.806Z,9.40
2019-03-26T13:55:49.797Z,9.30
2019-03-26T13:58:18.082Z,9.30
2019-03-26T14:00:47.024Z,9.40
2019-03-26T14:03:15.014Z,9.40
2019-03-26T14:05:42.981Z,9.30
2019-03-26T14:08:11.255Z,9.40
2019-03-26T14:10:41.228Z,9.10
2019-03-26T14:13:09.059Z,9.20
2019-03-26T14:15:37.127Z,9.30
2019-03-26T14:18:05.150Z,9.10
2019-03-26T14:20:33.107Z,9.30
2019-03-26T14:23:01.113Z,9.20
2019-03-26T14:25:29.524Z,9.70
2019-03-26T14:27:57.550Z,10.00
2019-03-26T14:30:38.405Z,10.20
2019-03-26T14:33:09.364Z,11.00
2019-03-26T14:35:38.394Z,10.30
2019-03-26T14:38:06.351Z,9.80
2019-03-26T14:40:34.504Z,11.30
2019-03-26T14:43:02.951Z,11.60
2019-03-26T14:45:30.995Z,11.20
2019-03-26T14:47:59.769Z,10.50
2019-03-26T14:50:27.875Z,9.70
2019-03-26T14:52:56.595Z,9.60
2019-03-26T14:55:24.735Z,9.50
2019-03-26T14:57:52.890Z,9.70
2019-03-26T15:00:21.098Z,9.80
2019-03-26T15:02:51.551Z,10.20
2019-03-26T15:05:19.554Z,10.60
2019-03-26T15:07:47.600Z,10.30
2019-03-26T15:10:16.036Z,10.50
2019-03-26T15:12:44.106Z,10.40
2019-03-26T15:15:12.457Z,10.60
2019-03-26T15:17:40.493Z,10.70
2019-03-26T15:20:08.796Z,10.80
2019-03-26T15:22:37.527Z,11.50
2019-03-26T15:25:05.783Z,11.70
2019-03-26T15:27:34.856Z,12.10
2019-03-26T15:30:02.982Z,11.60
2019-03-26T15:32:31.055Z,11.20
2019-03-26T15:34:59.121Z,10.60
2019-03-26T15:37:27.590Z,10.40
2019-03-26T15:39:55.647Z,10.40
2019-03-26T15:42:23.754Z,10.10
2019-03-26T15:44:51.900Z,10.20
2019-03-26T15:47:19.964Z,10.20
2019-03-26T15:49:48.198Z,9.70
2019-03-26T15:52:17.133Z,9.30
2019-03-26T15:54:45.143Z,9.10
2019-03-26T15:57:13.226Z,9.10
2019-03-26T15:59:41.210Z,8.90
2019-03-26T16:02:09.191Z,8.90
2019-03-26T16:04:37.325Z,8.80
2019-03-26T16:07:05.293Z,8.80
2019-03-26T16:09:33.632Z,8.80
2019-03-26T16:12:01.713Z,8.70
2019-03-26T16:14:29.701Z,8.70
2019-03-26T16:16:57.679Z,8.70
2019-03-26T16:19:32.021Z,8.80
2019-03-26T16:21:55.485Z,8.70
2019-03-26T16:24:23.506Z,8.60
2019-03-26T16:26:51.480Z,8.60
2019-03-26T16:29:19.524Z,8.70
2019-03-26T16:31:47.509Z,8.60
2019-03-26T16:34:15.914Z,8.60
2019-03-26T16:37:03.129Z,8.50
2019-03-26T16:39:31.575Z,8.60
2019-03-26T16:41:59.627Z,8.50
2019-03-26T16:44:27.632Z,8.50
2019-03-26T16:46:55.693Z,8.50
2019-03-26T16:49:23.739Z,8.40
2019-03-26T16:51:51.739Z,8.40
2019-03-26T16:54:19.747Z,8.40
2019-03-26T16:56:47.787Z,8.30
2019-03-26T16:59:15.787Z,8.30
2019-03-26T17:01:44.210Z,8.30
2019-03-26T17:04:12.183Z,8.20
2019-03-26T17:06:40.155Z,8.20
2019-03-26T17:09:08.325Z,8.20
2019-03-26T17:11:36.312Z,8.00
2019-03-26T17:14:04.577Z,8.00
2019-03-26T17:16:32.553Z,8.00
2019-03-26T17:19:00.510Z,8.00
2019-03-26T17:21:28.576Z,7.90
2019-03-26T17:23:56.560Z,7.90
2019-03-26T17:26:24.502Z,8.00
2019-03-26T17:28:52.504Z,7.90
2019-03-26T17:31:20.447Z,7.90
2019-03-26T17:33:48.399Z,7.80
2019-03-26T17:36:16.385Z,7.80
2019-03-26T17:38:44.366Z,7.80
2019-03-26T17:41:12.348Z,7.80
2019-03-26T17:43:40.626Z,7.80
2019-03-26T17:46:08.627Z,7.80
2019-03-26T17:48:36.632Z,7.80
2019-03-26T17:51:04.855Z,7.80
2019-03-26T17:53:32.888Z,7.80
2019-03-26T17:56:01.602Z,7.70
2019-03-26T17:58:29.640Z,7.70
2019-03-26T18:00:57.683Z,7.80
2019-03-26T18:03:27.013Z,7.70
2019-03-26T18:05:55.310Z,7.70
2019-03-26T18:08:23.301Z,7.70
2019-03-26T18:10:51.413Z,7.70
2019-03-26T18:13:19.391Z,7.80
2019-03-26T18:15:47.431Z,7.80
2019-03-26T18:18:15.770Z,7.70
2019-03-26T18:20:43.784Z,7.70
2019-03-26T18:23:11.798Z,7.70
2019-03-26T18:25:39.842Z,7.70
2019-03-26T18:28:07.867Z,7.70
2019-03-26T18:30:36.056Z,7.70
2019-03-26T18:33:04.335Z,7.70
2019-03-26T18:35:32.434Z,7.70
2019-03-26T18:38:01.036Z,7.60
2019-03-26T18:40:29.269Z,7.60
2019-03-26T18:42:58.955Z,7.70
2019-03-26T18:45:27.865Z,7.70
2019-03-26T18:48:11.905Z,7.70
2019-03-26T18:50:40.093Z,7.70
2019-03-26T18:53:08.551Z,7.70
2019-03-26T18:55:36.853Z,7.70
2019-03-26T18:58:05.030Z,7.80
2019-03-26T19:00:35.439Z,7.60
2019-03-26T19:03:03.954Z,7.60
2019-03-26T19:05:32.300Z,7.60
2019-03-26T19:08:00.331Z,7.60
2019-03-26T19:10:31.273Z,7.60
2019-03-26T19:12:59.524Z,7.50
2019-03-26T19:15:27.723Z,7.60
2019-03-26T19:17:55.839Z,7.60
2019-03-26T19:20:23.876Z,7.60
2019-03-26T19:22:51.876Z,7.60
2019-03-26T19:25:19.950Z,7.60
2019-03-26T19:27:47.987Z,7.60
2019-03-26T19:30:16.010Z,7.60
2019-03-26T19:32:44.074Z,7.60
2019-03-26T19:35:12.211Z,7.50
2019-03-26T19:37:40.255Z,7.50
2019-03-26T19:40:08.939Z,7.50
2019-03-26T19:42:37.017Z,7.60
2019-03-26T19:45:05.425Z,7.60
2019-03-26T19:47:33.465Z,7.60
2019-03-26T19:50:01.527Z,7.60
2019-03-26T19:52:29.560Z,7.60
2019-03-26T19:55:00.677Z,7.60
2019-03-26T19:57:27.413Z,7.50
2019-03-26T19:59:55.571Z,7.60
2019-03-26T20:02:23.646Z,7.50
2019-03-26T20:04:51.655Z,7.50
2019-03-26T20:07:19.694Z,7.50
2019-03-26T20:09:47.680Z,7.50
2019-03-26T20:12:15.748Z,7.50
2019-03-26T20:14:43.761Z,7.50
2019-03-26T20:17:11.781Z,7.50
2019-03-26T20:19:39.899Z,7.40
2019-03-26T20:22:07.955Z,7.50
2019-03-26T20:24:35.996Z,7.40
2019-03-26T20:27:04.193Z,7.40
2019-03-26T20:29:32.817Z,7.50
2019-03-26T20:32:00.907Z,7.50
2019-03-26T20:34:28.915Z,7.50
2019-03-26T20:36:56.987Z,7.50
2019-03-26T20:39:25.028Z,7.40
2019-03-26T20:41:53.104Z,7.40
2019-03-26T20:44:21.145Z,7.30
2019-03-26T20:46:49.200Z,7.30
2019-03-26T20:49:17.219Z,7.30
2019-03-26T20:51:45.265Z,7.30
2019-03-26T20:54:13.382Z,7.30
2019-03-26T20:56:41.407Z,7.30
2019-03-26T20:59:09.618Z,7.30
2019-03-26T21:01:37.707Z,7.20
2019-03-26T21:04:05.746Z,7.20
2019-03-26T21:06:33.787Z,7.20
2019-03-26T21:09:01.806Z,7.20
2019-03-26T21:11:29.846Z,7.30
2019-03-26T21:13:57.884Z,7.30
2019-03-26T21:16:25.882Z,7.30
2019-03-26T21:18:53.902Z,7.30
2019-03-26T21:21:21.949Z,7.40
2019-03-26T21:23:50.004Z,7.40
2019-03-26T21:26:18.049Z,7.40
2019-03-26T21:28:46.054Z,7.40
2019-03-26T21:31:14.519Z,7.30
2019-03-26T21:33:42.574Z,7.30
2019-03-26T21:36:10.608Z,7.30
2019-03-26T21:38:38.774Z,7.30
2019-03-26T21:41:06.802Z,7.40
2019-03-26T21:43:34.867Z,7.30
2019-03-26T21:46:02.939Z,7.30
2019-03-26T21:48:30.966Z,7.30
2019-03-26T21:50:59.286Z,7.40
2019-03-26T21:53:27.533Z,7.40
2019-03-26T21:56:05.924Z,7.40
2019-03-26T21:58:25.350Z,7.40
2019-03-26T22:00:53.411Z,7.40
2019-03-26T22:03:21.438Z,7.40
2019-03-26T22:05:49.445Z,7.40
2019-03-26T22:08:17.508Z,7.30
2019-03-26T22:10:45.611Z,7.30
2019-03-26T22:13:13.611Z,7.30
2019-03-26T22:15:41.621Z,7.30
2019-03-26T22:18:09.656Z,7.30
2019-03-26T22:20:37.693Z,7.30
2019-03-26T22:23:05.803Z,7.30
2019-03-26T22:25:33.963Z,7.30
2019-03-26T22:28:02.043Z,7.30
2019-03-26T22:30:30.050Z,7.30
2019-03-26T22:32:58.113Z,7.40
2019-03-26T22:35:26.126Z,7.30
2019-03-26T22:37:54.143Z,7.40
2019-03-26T22:40:22.170Z,7.30
2019-03-26T22:42:50.154Z,7.30
2019-03-26T22:45:18.164Z,7.30
2019-03-26T22:47:46.214Z,7.30
2019-03-26T22:50:14.358Z,7.30
2019-03-26T22:52:42.367Z,7.20
2019-03-26T22:55:10.770Z,7.20
2019-03-26T22:57:38.883Z,7.20
2019-03-26T23:00:11.262Z,7.20
2019-03-26T23:02:39.475Z,7.20
2019-03-26T23:05:08.671Z,7.20
2019-03-26T23:07:36.656Z,7.20
2019-03-26T23:10:06.226Z,7.20
2019-03-26T23:12:34.253Z,7.30
2019-03-26T23:15:02.306Z,7.30
2019-03-26T23:17:30.302Z,7.30
2019-03-26T23:19:58.347Z,7.30
2019-03-26T23:22:26.369Z,7.20
2019-03-26T23:24:54.397Z,7.20
2019-03-26T23:27:22.799Z,7.20
2019-03-26T23:30:11.826Z,7.20
2019-03-26T23:32:40.231Z,7.30
2019-03-26T23:35:08.423Z,7.20
2019-03-26T23:37:36.723Z,7.10
2019-03-26T23:40:05.674Z,7.10
2019-03-26T23:42:33.707Z,7.10
2019-03-26T23:45:20.943Z,7.10
2019-03-26T23:47:49.023Z,7.30
2019-03-26T23:50:17.111Z,7.00
2019-03-26T23:52:45.165Z,7.00
2019-03-26T23:55:13.427Z,6.90
2019-03-26T23:57:41.518Z,6.90
